Airfield :
LOGIN :

Register | Disclaimer

   EN    FR    IT 

 










Legend :    VFR   Marginal VFR   IFR   Intensive IFR   Very Intensive IFR
Visi :
Ceiling :
>= 8 km
>= 3000ft
5 to 8 km
1000 to 3000 ft
1500m to 5 km
500 to 1000 ft
800 to 1500m
200 to 500 ft
< 800m
< 200 ft
Symbols :   Thunderstorms  Fog  Heavy snow  Heavy precipitations  Wind > 20 kt
SIGMETs :     Misc.  Thunderstorms  Icing  Turbulence  Mountain Waves  Volcanic Ashes







- Airport Elevation : -11 ft
- IATA code : AMS


EHAM - Amsterdam Schiphol

CURRENT METAR :
  • 262125Z 03002KT 7000 MIFG NSC 12/12 Q1023 BECMG 4000

EXPIRED METARs :
  • 262055Z VRB02KT 7000 MIFG NSC 12/12 Q1023 BECMG 4000
  • 262025Z 04006KT 350V080 7000 MIFG NSC 13/12 Q1023 BECMG 4000
  • 261955Z 04005KT 340V110 7000 MIFG NSC 13/12 Q1023 BECMG 4000
  • 261925Z 04005KT 320V110 8000 NSC 14/12 Q1023 BECMG 6000
  • 261855Z 05006KT 340V110 8000 NSC 13/12 Q1023 BECMG 6000

TAF TAF EHAM
Valid from the 26 at 18:00 until the 28 at 00:00 UTC


261718Z 2618/2724 06006KT 8000 SCT015
BECMG 2620/2623 4000 BR MIFG
BECMG 2623/2702 0800 FG
PROB40 2702/2708 0400 BKN001
BECMG 2707/2709 4000 BR BKN008
BECMG 2709/2712 12008KT 9999 NSW SCT015
No reported NOTAMs for that airfield.



MET'MAP, your aeronautical weather chart ! - Copyright ORBIFLY December 2007 - Disclaimer

ORBIFLY MET'MAP TEAM :

Programming & Development : Alexandra Zaïnal
Concept & Development : Baudouin d'Aumeries
Co-Development & Prog : Marc-Olivier Méhu
Technical & hardware support : Manuel Goepfert

Contact : metmap@orbifly.com




SOURCES & CREDITS :

   NOAA